sensor_id;sensor_type;location;lat;lon;timestamp;P1;durP1;ratioP1;P2;durP2;ratioP2
76978;SDS011;65911;47.502;19.148;2023-06-22T00:02:19;10.10;;;3.42;;
76978;SDS011;65911;47.502;19.148;2023-06-22T00:05:21;8.35;;;3.50;;
76978;SDS011;65911;47.502;19.148;2023-06-22T00:08:23;8.37;;;3.37;;
76978;SDS011;65911;47.502;19.148;2023-06-22T00:11:26;11.68;;;3.67;;
76978;SDS011;65911;47.502;19.148;2023-06-22T00:14:29;9.10;;;3.50;;
76978;SDS011;65911;47.502;19.148;2023-06-22T00:17:31;7.20;;;3.53;;
76978;SDS011;65911;47.502;19.148;2023-06-22T00:20:34;9.02;;;3.25;;
76978;SDS011;65911;47.502;19.148;2023-06-22T00:23:38;7.30;;;3.40;;
76978;SDS011;65911;47.502;19.148;2023-06-22T00:26:41;9.93;;;3.50;;
76978;SDS011;65911;47.502;19.148;2023-06-22T00:29:44;8.20;;;3.47;;
76978;SDS011;65911;47.502;19.148;2023-06-22T00:32:46;7.97;;;3.33;;
76978;SDS011;65911;47.502;19.148;2023-06-22T00:35:49;7.75;;;3.30;;
76978;SDS011;65911;47.502;19.148;2023-06-22T00:38:54;8.30;;;3.63;;
76978;SDS011;65911;47.502;19.148;2023-06-22T00:41:56;7.32;;;3.65;;
76978;SDS011;65911;47.502;19.148;2023-06-22T00:44:59;6.10;;;3.33;;
76978;SDS011;65911;47.502;19.148;2023-06-22T00:48:01;10.90;;;3.70;;
76978;SDS011;65911;47.502;19.148;2023-06-22T00:51:04;7.25;;;3.60;;
76978;SDS011;65911;47.502;19.148;2023-06-22T00:54:06;8.77;;;3.45;;
76978;SDS011;65911;47.502;19.148;2023-06-22T00:57:08;6.53;;;3.25;;
76978;SDS011;65911;47.502;19.148;2023-06-22T01:00:14;8.60;;;3.38;;
76978;SDS011;65911;47.502;19.148;2023-06-22T01:03:21;7.43;;;3.50;;
76978;SDS011;65911;47.502;19.148;2023-06-22T01:06:29;7.53;;;3.25;;
76978;SDS011;65911;47.502;19.148;2023-06-22T01:09:52;8.70;;;3.27;;
76978;SDS011;65911;47.502;19.148;2023-06-22T01:13:03;6.25;;;3.40;;
76978;SDS011;65911;47.502;19.148;2023-06-22T01:16:07;7.63;;;3.63;;
76978;SDS011;65911;47.502;19.148;2023-06-22T01:22:54;7.82;;;3.67;;
76978;SDS011;65911;47.502;19.148;2023-06-22T01:26:14;6.18;;;3.53;;
76978;SDS011;65911;47.502;19.148;2023-06-22T01:29:21;8.10;;;3.40;;
76978;SDS011;65911;47.502;19.148;2023-06-22T01:32:25;9.02;;;3.47;;
76978;SDS011;65911;47.502;19.148;2023-06-22T01:35:32;9.60;;;3.65;;
76978;SDS011;65911;47.502;19.148;2023-06-22T01:38:35;9.15;;;3.30;;
76978;SDS011;65911;47.502;19.148;2023-06-22T01:41:40;9.80;;;3.27;;
76978;SDS011;65911;47.502;19.148;2023-06-22T01:44:43;9.60;;;3.88;;
76978;SDS011;65911;47.502;19.148;2023-06-22T01:47:46;7.10;;;3.58;;
76978;SDS011;65911;47.502;19.148;2023-06-22T01:50:49;12.40;;;3.90;;
76978;SDS011;65911;47.502;19.148;2023-06-22T01:53:51;8.45;;;3.25;;
76978;SDS011;65911;47.502;19.148;2023-06-22T01:56:53;7.63;;;3.58;;
76978;SDS011;65911;47.502;19.148;2023-06-22T02:00:00;7.55;;;3.60;;
76978;SDS011;65911;47.502;19.148;2023-06-22T02:03:17;9.95;;;4.03;;
76978;SDS011;65911;47.502;19.148;2023-06-22T02:06:23;7.15;;;3.25;;
76978;SDS011;65911;47.502;19.148;2023-06-22T02:09:29;11.43;;;4.22;;
76978;SDS011;65911;47.502;19.148;2023-06-22T02:12:32;10.20;;;3.90;;
76978;SDS011;65911;47.502;19.148;2023-06-22T02:15:35;7.13;;;3.90;;
76978;SDS011;65911;47.502;19.148;2023-06-22T02:18:38;8.70;;;4.00;;
76978;SDS011;65911;47.502;19.148;2023-06-22T02:21:42;9.90;;;3.90;;
76978;SDS011;65911;47.502;19.148;2023-06-22T02:24:44;9.30;;;3.53;;
76978;SDS011;65911;47.502;19.148;2023-06-22T02:27:46;7.22;;;3.40;;
76978;SDS011;65911;47.502;19.148;2023-06-22T02:30:51;11.15;;;3.72;;
76978;SDS011;65911;47.502;19.148;2023-06-22T02:33:53;15.55;;;4.10;;
76978;SDS011;65911;47.502;19.148;2023-06-22T02:36:56;9.23;;;3.78;;
76978;SDS011;65911;47.502;19.148;2023-06-22T02:40:03;9.40;;;3.35;;
76978;SDS011;65911;47.502;19.148;2023-06-22T02:43:06;10.13;;;3.50;;
76978;SDS011;65911;47.502;19.148;2023-06-22T02:46:09;9.38;;;3.67;;
76978;SDS011;65911;47.502;19.148;2023-06-22T02:49:11;12.93;;;3.92;;
76978;SDS011;65911;47.502;19.148;2023-06-22T02:52:13;8.13;;;3.43;;
76978;SDS011;65911;47.502;19.148;2023-06-22T02:55:16;10.55;;;3.92;;
76978;SDS011;65911;47.502;19.148;2023-06-22T02:58:26;7.43;;;3.92;;
76978;SDS011;65911;47.502;19.148;2023-06-22T03:01:28;11.73;;;3.63;;
76978;SDS011;65911;47.502;19.148;2023-06-22T03:04:33;10.75;;;3.90;;
76978;SDS011;65911;47.502;19.148;2023-06-22T03:07:36;6.10;;;3.60;;
76978;SDS011;65911;47.502;19.148;2023-06-22T03:10:39;7.50;;;4.18;;
76978;SDS011;65911;47.502;19.148;2023-06-22T03:13:41;10.97;;;3.53;;
76978;SDS011;65911;47.502;19.148;2023-06-22T03:16:43;9.10;;;3.80;;
76978;SDS011;65911;47.502;19.148;2023-06-22T03:19:46;10.15;;;4.00;;
76978;SDS011;65911;47.502;19.148;2023-06-22T03:22:48;13.47;;;4.13;;
76978;SDS011;65911;47.502;19.148;2023-06-22T03:25:50;8.93;;;3.90;;
76978;SDS011;65911;47.502;19.148;2023-06-22T03:28:53;9.27;;;3.97;;
76978;SDS011;65911;47.502;19.148;2023-06-22T03:31:55;8.15;;;4.13;;
76978;SDS011;65911;47.502;19.148;2023-06-22T03:34:57;9.52;;;4.20;;
76978;SDS011;65911;47.502;19.148;2023-06-22T03:38:01;6.65;;;3.78;;
76978;SDS011;65911;47.502;19.148;2023-06-22T03:41:05;13.75;;;3.78;;
76978;SDS011;65911;47.502;19.148;2023-06-22T03:44:08;9.63;;;3.60;;
76978;SDS011;65911;47.502;19.148;2023-06-22T03:47:14;12.57;;;4.38;;
76978;SDS011;65911;47.502;19.148;2023-06-22T03:50:16;7.43;;;3.58;;
76978;SDS011;65911;47.502;19.148;2023-06-22T03:53:18;9.27;;;4.20;;
76978;SDS011;65911;47.502;19.148;2023-06-22T03:56:21;12.18;;;3.95;;
76978;SDS011;65911;47.502;19.148;2023-06-22T03:59:23;6.88;;;3.92;;
76978;SDS011;65911;47.502;19.148;2023-06-22T04:02:25;8.43;;;3.92;;
76978;SDS011;65911;47.502;19.148;2023-06-22T04:05:28;11.73;;;3.80;;
76978;SDS011;65911;47.502;19.148;2023-06-22T04:08:30;13.07;;;4.18;;
76978;SDS011;65911;47.502;19.148;2023-06-22T04:11:33;6.18;;;3.80;;
76978;SDS011;65911;47.502;19.148;2023-06-22T04:14:35;9.93;;;4.17;;
76978;SDS011;65911;47.502;19.148;2023-06-22T04:17:37;11.88;;;4.20;;
76978;SDS011;65911;47.502;19.148;2023-06-22T04:20:39;8.45;;;3.95;;
76978;SDS011;65911;47.502;19.148;2023-06-22T04:23:41;8.23;;;3.73;;
76978;SDS011;65911;47.502;19.148;2023-06-22T04:26:45;7.00;;;3.72;;
76978;SDS011;65911;47.502;19.148;2023-06-22T04:29:48;15.05;;;4.25;;
76978;SDS011;65911;47.502;19.148;2023-06-22T04:32:51;8.40;;;4.45;;
76978;SDS011;65911;47.502;19.148;2023-06-22T04:35:59;8.48;;;4.30;;
76978;SDS011;65911;47.502;19.148;2023-06-22T04:39:06;7.05;;;4.20;;
76978;SDS011;65911;47.502;19.148;2023-06-22T04:42:14;10.90;;;4.55;;
76978;SDS011;65911;47.502;19.148;2023-06-22T04:45:16;11.07;;;4.10;;
76978;SDS011;65911;47.502;19.148;2023-06-22T04:48:19;9.18;;;3.97;;
76978;SDS011;65911;47.502;19.148;2023-06-22T04:51:21;13.30;;;4.57;;
76978;SDS011;65911;47.502;19.148;2023-06-22T04:54:23;7.60;;;4.27;;
76978;SDS011;65911;47.502;19.148;2023-06-22T04:57:26;8.18;;;4.18;;
76978;SDS011;65911;47.502;19.148;2023-06-22T05:00:34;13.02;;;4.57;;
76978;SDS011;65911;47.502;19.148;2023-06-22T05:03:38;8.15;;;4.00;;
76978;SDS011;65911;47.502;19.148;2023-06-22T05:06:45;10.68;;;4.35;;
76978;SDS011;65911;47.502;19.148;2023-06-22T05:09:47;9.45;;;4.18;;
76978;SDS011;65911;47.502;19.148;2023-06-22T05:12:49;10.68;;;4.50;;
76978;SDS011;65911;47.502;19.148;2023-06-22T05:15:51;9.10;;;4.60;;
76978;SDS011;65911;47.502;19.148;2023-06-22T05:18:54;12.93;;;5.03;;
76978;SDS011;65911;47.502;19.148;2023-06-22T05:21:57;10.98;;;5.18;;
76978;SDS011;65911;47.502;19.148;2023-06-22T05:24:59;11.73;;;4.85;;
76978;SDS011;65911;47.502;19.148;2023-06-22T05:28:01;9.15;;;4.57;;
76978;SDS011;65911;47.502;19.148;2023-06-22T05:31:13;9.00;;;4.70;;
76978;SDS011;65911;47.502;19.148;2023-06-22T05:34:16;10.90;;;5.07;;
76978;SDS011;65911;47.502;19.148;2023-06-22T05:37:21;9.70;;;4.40;;
76978;SDS011;65911;47.502;19.148;2023-06-22T05:40:23;10.80;;;5.57;;
76978;SDS011;65911;47.502;19.148;2023-06-22T05:43:25;12.38;;;5.10;;
76978;SDS011;65911;47.502;19.148;2023-06-22T05:46:27;11.10;;;5.23;;
76978;SDS011;65911;47.502;19.148;2023-06-22T05:49:30;13.02;;;5.47;;
76978;SDS011;65911;47.502;19.148;2023-06-22T05:52:37;12.23;;;4.97;;
76978;SDS011;65911;47.502;19.148;2023-06-22T05:55:40;11.57;;;4.47;;
76978;SDS011;65911;47.502;19.148;2023-06-22T05:58:42;10.82;;;4.72;;
76978;SDS011;65911;47.502;19.148;2023-06-22T06:01:45;12.98;;;5.05;;
76978;SDS011;65911;47.502;19.148;2023-06-22T06:04:51;12.93;;;4.38;;
76978;SDS011;65911;47.502;19.148;2023-06-22T06:07:54;16.40;;;4.80;;
76978;SDS011;65911;47.502;19.148;2023-06-22T06:10:56;13.30;;;4.95;;
76978;SDS011;65911;47.502;19.148;2023-06-22T06:13:59;13.07;;;5.38;;
76978;SDS011;65911;47.502;19.148;2023-06-22T06:17:01;12.17;;;5.80;;
76978;SDS011;65911;47.502;19.148;2023-06-22T06:20:04;12.13;;;5.28;;
76978;SDS011;65911;47.502;19.148;2023-06-22T06:23:09;11.15;;;4.70;;
76978;SDS011;65911;47.502;19.148;2023-06-22T06:26:11;12.90;;;4.28;;
76978;SDS011;65911;47.502;19.148;2023-06-22T06:29:13;9.90;;;4.43;;
76978;SDS011;65911;47.502;19.148;2023-06-22T06:32:18;12.77;;;4.35;;
76978;SDS011;65911;47.502;19.148;2023-06-22T06:35:20;11.30;;;4.22;;
76978;SDS011;65911;47.502;19.148;2023-06-22T06:38:23;9.10;;;3.47;;
76978;SDS011;65911;47.502;19.148;2023-06-22T06:41:26;12.63;;;3.30;;
76978;SDS011;65911;47.502;19.148;2023-06-22T06:44:28;12.93;;;4.32;;
76978;SDS011;65911;47.502;19.148;2023-06-22T06:47:30;12.80;;;3.93;;
76978;SDS011;65911;47.502;19.148;2023-06-22T06:50:33;11.73;;;4.25;;
76978;SDS011;65911;47.502;19.148;2023-06-22T06:53:39;9.38;;;4.03;;
76978;SDS011;65911;47.502;19.148;2023-06-22T06:56:41;11.68;;;4.13;;
76978;SDS011;65911;47.502;19.148;2023-06-22T06:59:46;11.65;;;3.60;;
76978;SDS011;65911;47.502;19.148;2023-06-22T07:02:48;10.82;;;3.33;;
76978;SDS011;65911;47.502;19.148;2023-06-22T07:05:51;10.48;;;3.28;;
76978;SDS011;65911;47.502;19.148;2023-06-22T07:08:53;12.13;;;3.43;;
76978;SDS011;65911;47.502;19.148;2023-06-22T07:11:55;10.65;;;3.33;;
76978;SDS011;65911;47.502;19.148;2023-06-22T07:15:04;7.90;;;3.55;;
76978;SDS011;65911;47.502;19.148;2023-06-22T07:18:08;11.95;;;3.33;;
76978;SDS011;65911;47.502;19.148;2023-06-22T07:21:10;8.95;;;2.90;;
76978;SDS011;65911;47.502;19.148;2023-06-22T07:24:12;12.27;;;2.95;;
76978;SDS011;65911;47.502;19.148;2023-06-22T07:27:15;7.20;;;2.60;;
76978;SDS011;65911;47.502;19.148;2023-06-22T07:30:20;10.80;;;2.93;;
76978;SDS011;65911;47.502;19.148;2023-06-22T07:33:23;12.02;;;2.85;;
76978;SDS011;65911;47.502;19.148;2023-06-22T07:36:25;8.48;;;2.97;;
76978;SDS011;65911;47.502;19.148;2023-06-22T07:39:27;8.67;;;3.10;;
76978;SDS011;65911;47.502;19.148;2023-06-22T07:42:30;9.23;;;2.97;;
76978;SDS011;65911;47.502;19.148;2023-06-22T07:45:35;10.02;;;2.72;;
76978;SDS011;65911;47.502;19.148;2023-06-22T07:48:37;8.40;;;2.80;;
76978;SDS011;65911;47.502;19.148;2023-06-22T07:51:40;8.77;;;2.90;;
76978;SDS011;65911;47.502;19.148;2023-06-22T07:54:42;6.40;;;3.00;;
76978;SDS011;65911;47.502;19.148;2023-06-22T07:57:46;7.45;;;2.72;;
76978;SDS011;65911;47.502;19.148;2023-06-22T08:00:49;12.67;;;2.70;;
76978;SDS011;65911;47.502;19.148;2023-06-22T08:03:51;6.20;;;2.85;;
76978;SDS011;65911;47.502;19.148;2023-06-22T08:06:53;11.57;;;2.78;;
76978;SDS011;65911;47.502;19.148;2023-06-22T08:09:55;5.73;;;2.67;;
76978;SDS011;65911;47.502;19.148;2023-06-22T08:12:58;7.07;;;2.67;;
76978;SDS011;65911;47.502;19.148;2023-06-22T08:16:00;8.82;;;3.00;;
76978;SDS011;65911;47.502;19.148;2023-06-22T08:19:04;11.00;;;3.58;;
76978;SDS011;65911;47.502;19.148;2023-06-22T08:22:06;9.00;;;3.50;;
76978;SDS011;65911;47.502;19.148;2023-06-22T08:25:09;6.65;;;2.85;;
76978;SDS011;65911;47.502;19.148;2023-06-22T08:28:12;8.63;;;2.53;;
76978;SDS011;65911;47.502;19.148;2023-06-22T08:31:15;7.83;;;3.30;;
76978;SDS011;65911;47.502;19.148;2023-06-22T08:34:17;11.73;;;3.28;;
76978;SDS011;65911;47.502;19.148;2023-06-22T08:37:23;8.38;;;3.60;;
76978;SDS011;65911;47.502;19.148;2023-06-22T08:40:32;11.02;;;3.40;;
76978;SDS011;65911;47.502;19.148;2023-06-22T08:43:34;8.73;;;3.30;;
76978;SDS011;65911;47.502;19.148;2023-06-22T08:46:36;8.63;;;4.07;;
76978;SDS011;65911;47.502;19.148;2023-06-22T08:49:40;8.65;;;3.47;;
76978;SDS011;65911;47.502;19.148;2023-06-22T08:52:43;13.10;;;3.97;;
76978;SDS011;65911;47.502;19.148;2023-06-22T08:55:45;7.65;;;3.83;;
76978;SDS011;65911;47.502;19.148;2023-06-22T08:58:47;6.97;;;3.45;;
76978;SDS011;65911;47.502;19.148;2023-06-22T09:01:50;7.97;;;3.67;;
76978;SDS011;65911;47.502;19.148;2023-06-22T09:04:52;11.50;;;4.40;;
76978;SDS011;65911;47.502;19.148;2023-06-22T09:07:57;8.95;;;4.10;;
76978;SDS011;65911;47.502;19.148;2023-06-22T09:11:00;10.85;;;4.32;;
76978;SDS011;65911;47.502;19.148;2023-06-22T09:14:02;7.07;;;4.10;;
76978;SDS011;65911;47.502;19.148;2023-06-22T09:17:05;11.25;;;4.22;;
76978;SDS011;65911;47.502;19.148;2023-06-22T09:20:08;6.47;;;4.10;;
76978;SDS011;65911;47.502;19.148;2023-06-22T09:23:12;11.70;;;4.43;;
76978;SDS011;65911;47.502;19.148;2023-06-22T09:26:15;7.80;;;3.92;;
76978;SDS011;65911;47.502;19.148;2023-06-22T09:29:17;8.55;;;4.40;;
76978;SDS011;65911;47.502;19.148;2023-06-22T09:32:20;10.55;;;4.68;;
76978;SDS011;65911;47.502;19.148;2023-06-22T09:35:23;11.15;;;5.00;;
76978;SDS011;65911;47.502;19.148;2023-06-22T09:38:25;8.73;;;4.82;;
76978;SDS011;65911;47.502;19.148;2023-06-22T09:41:27;8.52;;;4.72;;
76978;SDS011;65911;47.502;19.148;2023-06-22T09:44:30;11.33;;;4.80;;
76978;SDS011;65911;47.502;19.148;2023-06-22T09:47:32;9.20;;;4.55;;
76978;SDS011;65911;47.502;19.148;2023-06-22T09:50:35;7.25;;;4.72;;
76978;SDS011;65911;47.502;19.148;2023-06-22T09:53:38;10.43;;;5.07;;
76978;SDS011;65911;47.502;19.148;2023-06-22T09:56:40;9.13;;;4.63;;
76978;SDS011;65911;47.502;19.148;2023-06-22T09:59:43;11.85;;;5.47;;
76978;SDS011;65911;47.502;19.148;2023-06-22T10:02:45;10.10;;;5.20;;
76978;SDS011;65911;47.502;19.148;2023-06-22T10:05:48;11.20;;;5.60;;
76978;SDS011;65911;47.502;19.148;2023-06-22T10:08:51;13.40;;;5.63;;
76978;SDS011;65911;47.502;19.148;2023-06-22T10:11:54;9.93;;;5.40;;
76978;SDS011;65911;47.502;19.148;2023-06-22T10:14:56;11.67;;;5.30;;
76978;SDS011;65911;47.502;19.148;2023-06-22T10:17:59;9.02;;;5.38;;
76978;SDS011;65911;47.502;19.148;2023-06-22T10:21:01;13.85;;;5.00;;
76978;SDS011;65911;47.502;19.148;2023-06-22T10:24:04;10.48;;;5.03;;
76978;SDS011;65911;47.502;19.148;2023-06-22T10:27:09;13.50;;;6.07;;
76978;SDS011;65911;47.502;19.148;2023-06-22T10:30:11;13.85;;;6.90;;
76978;SDS011;65911;47.502;19.148;2023-06-22T10:33:15;8.18;;;5.60;;
76978;SDS011;65911;47.502;19.148;2023-06-22T10:36:17;12.23;;;5.73;;
76978;SDS011;65911;47.502;19.148;2023-06-22T10:39:20;10.57;;;5.43;;
76978;SDS011;65911;47.502;19.148;2023-06-22T10:42:22;10.00;;;5.95;;
76978;SDS011;65911;47.502;19.148;2023-06-22T10:45:24;9.68;;;6.55;;
76978;SDS011;65911;47.502;19.148;2023-06-22T10:48:27;11.55;;;6.65;;
76978;SDS011;65911;47.502;19.148;2023-06-22T10:51:40;9.32;;;5.68;;
76978;SDS011;65911;47.502;19.148;2023-06-22T10:54:44;9.55;;;6.00;;
76978;SDS011;65911;47.502;19.148;2023-06-22T10:57:46;11.37;;;5.90;;
76978;SDS011;65911;47.502;19.148;2023-06-22T11:00:49;7.40;;;5.40;;
76978;SDS011;65911;47.502;19.148;2023-06-22T11:03:51;12.38;;;5.43;;
76978;SDS011;65911;47.502;19.148;2023-06-22T11:06:54;10.23;;;6.13;;
76978;SDS011;65911;47.502;19.148;2023-06-22T11:09:58;11.40;;;5.93;;
76978;SDS011;65911;47.502;19.148;2023-06-22T11:13:00;10.20;;;6.03;;
76978;SDS011;65911;47.502;19.148;2023-06-22T11:16:04;8.50;;;5.90;;
76978;SDS011;65911;47.502;19.148;2023-06-22T11:19:06;10.37;;;6.47;;
76978;SDS011;65911;47.502;19.148;2023-06-22T11:22:09;9.27;;;5.80;;
76978;SDS011;65911;47.502;19.148;2023-06-22T11:25:11;9.98;;;6.30;;
76978;SDS011;65911;47.502;19.148;2023-06-22T11:28:14;12.60;;;6.40;;
76978;SDS011;65911;47.502;19.148;2023-06-22T11:31:16;9.67;;;6.10;;
76978;SDS011;65911;47.502;19.148;2023-06-22T11:34:27;9.27;;;5.65;;
76978;SDS011;65911;47.502;19.148;2023-06-22T11:37:30;8.43;;;5.72;;
76978;SDS011;65911;47.502;19.148;2023-06-22T11:40:32;10.43;;;5.93;;
76978;SDS011;65911;47.502;19.148;2023-06-22T11:43:34;12.15;;;6.18;;
76978;SDS011;65911;47.502;19.148;2023-06-22T11:46:37;11.25;;;5.90;;
76978;SDS011;65911;47.502;19.148;2023-06-22T11:49:40;9.25;;;6.32;;
76978;SDS011;65911;47.502;19.148;2023-06-22T11:52:43;11.30;;;6.03;;
76978;SDS011;65911;47.502;19.148;2023-06-22T11:55:45;8.65;;;5.50;;
76978;SDS011;65911;47.502;19.148;2023-06-22T11:58:47;8.90;;;5.68;;
76978;SDS011;65911;47.502;19.148;2023-06-22T12:01:49;10.57;;;5.90;;
76978;SDS011;65911;47.502;19.148;2023-06-22T12:04:55;9.43;;;6.32;;
76978;SDS011;65911;47.502;19.148;2023-06-22T12:07:58;9.18;;;6.13;;
76978;SDS011;65911;47.502;19.148;2023-06-22T12:11:00;10.50;;;6.47;;
76978;SDS011;65911;47.502;19.148;2023-06-22T12:14:03;9.80;;;5.97;;
76978;SDS011;65911;47.502;19.148;2023-06-22T12:17:06;8.07;;;5.90;;
76978;SDS011;65911;47.502;19.148;2023-06-22T12:20:08;10.63;;;6.35;;
76978;SDS011;65911;47.502;19.148;2023-06-22T12:23:12;8.77;;;6.00;;
76978;SDS011;65911;47.502;19.148;2023-06-22T12:26:14;9.37;;;6.20;;
76978;SDS011;65911;47.502;19.148;2023-06-22T12:29:16;10.13;;;6.18;;
76978;SDS011;65911;47.502;19.148;2023-06-22T12:32:18;8.65;;;5.10;;
76978;SDS011;65911;47.502;19.148;2023-06-22T12:35:21;10.20;;;5.63;;
76978;SDS011;65911;47.502;19.148;2023-06-22T12:38:23;8.98;;;5.75;;
76978;SDS011;65911;47.502;19.148;2023-06-22T12:41:27;8.90;;;5.78;;
76978;SDS011;65911;47.502;19.148;2023-06-22T12:44:35;9.30;;;6.05;;
76978;SDS011;65911;47.502;19.148;2023-06-22T12:47:37;10.27;;;6.20;;
76978;SDS011;65911;47.502;19.148;2023-06-22T12:50:43;8.93;;;5.87;;
76978;SDS011;65911;47.502;19.148;2023-06-22T12:53:45;9.88;;;6.32;;
76978;SDS011;65911;47.502;19.148;2023-06-22T12:56:50;7.50;;;5.55;;
76978;SDS011;65911;47.502;19.148;2023-06-22T12:59:55;11.63;;;5.23;;
76978;SDS011;65911;47.502;19.148;2023-06-22T13:02:57;10.65;;;5.80;;
76978;SDS011;65911;47.502;19.148;2023-06-22T13:05:59;10.15;;;5.40;;
76978;SDS011;65911;47.502;19.148;2023-06-22T13:09:02;9.90;;;5.68;;
76978;SDS011;65911;47.502;19.148;2023-06-22T13:12:09;8.47;;;5.50;;
76978;SDS011;65911;47.502;19.148;2023-06-22T13:15:12;8.82;;;5.57;;
76978;SDS011;65911;47.502;19.148;2023-06-22T13:18:14;13.40;;;6.28;;
76978;SDS011;65911;47.502;19.148;2023-06-22T13:21:16;7.63;;;5.30;;
76978;SDS011;65911;47.502;19.148;2023-06-22T13:24:18;11.70;;;5.90;;
76978;SDS011;65911;47.502;19.148;2023-06-22T13:27:21;11.95;;;5.57;;
76978;SDS011;65911;47.502;19.148;2023-06-22T13:30:23;9.52;;;5.90;;
76978;SDS011;65911;47.502;19.148;2023-06-22T13:33:25;7.33;;;5.23;;
76978;SDS011;65911;47.502;19.148;2023-06-22T13:36:28;8.65;;;5.70;;
76978;SDS011;65911;47.502;19.148;2023-06-22T13:39:32;9.15;;;5.72;;
76978;SDS011;65911;47.502;19.148;2023-06-22T13:42:34;10.75;;;5.97;;
76978;SDS011;65911;47.502;19.148;2023-06-22T13:45:36;9.30;;;5.70;;
76978;SDS011;65911;47.502;19.148;2023-06-22T13:48:39;8.70;;;5.40;;
76978;SDS011;65911;47.502;19.148;2023-06-22T13:51:41;8.30;;;5.22;;
76978;SDS011;65911;47.502;19.148;2023-06-22T13:54:43;8.73;;;5.43;;
76978;SDS011;65911;47.502;19.148;2023-06-22T13:57:45;8.38;;;5.65;;
76978;SDS011;65911;47.502;19.148;2023-06-22T14:00:47;8.45;;;5.97;;
76978;SDS011;65911;47.502;19.148;2023-06-22T14:03:50;9.00;;;5.40;;
76978;SDS011;65911;47.502;19.148;2023-06-22T14:06:53;8.77;;;5.87;;
76978;SDS011;65911;47.502;19.148;2023-06-22T14:10:15;11.70;;;5.93;;
76978;SDS011;65911;47.502;19.148;2023-06-22T14:13:17;7.43;;;5.85;;
76978;SDS011;65911;47.502;19.148;2023-06-22T14:16:19;8.45;;;5.60;;
76978;SDS011;65911;47.502;19.148;2023-06-22T14:19:22;7.55;;;5.38;;
76978;SDS011;65911;47.502;19.148;2023-06-22T14:22:24;8.73;;;5.63;;
76978;SDS011;65911;47.502;19.148;2023-06-22T14:25:27;10.23;;;5.60;;
76978;SDS011;65911;47.502;19.148;2023-06-22T14:28:29;10.85;;;5.50;;
76978;SDS011;65911;47.502;19.148;2023-06-22T14:31:32;10.87;;;5.87;;
76978;SDS011;65911;47.502;19.148;2023-06-22T14:34:35;12.97;;;5.70;;
76978;SDS011;65911;47.502;19.148;2023-06-22T14:37:41;8.18;;;5.75;;
76978;SDS011;65911;47.502;19.148;2023-06-22T14:40:43;8.98;;;5.72;;
76978;SDS011;65911;47.502;19.148;2023-06-22T14:44:05;12.23;;;6.00;;
76978;SDS011;65911;47.502;19.148;2023-06-22T14:47:07;13.80;;;5.97;;
76978;SDS011;65911;47.502;19.148;2023-06-22T14:50:09;10.07;;;5.97;;
76978;SDS011;65911;47.502;19.148;2023-06-22T14:53:14;13.35;;;6.22;;
76978;SDS011;65911;47.502;19.148;2023-06-22T14:56:16;12.23;;;5.97;;
76978;SDS011;65911;47.502;19.148;2023-06-22T14:59:18;6.73;;;5.63;;
76978;SDS011;65911;47.502;19.148;2023-06-22T15:02:20;11.70;;;6.32;;
76978;SDS011;65911;47.502;19.148;2023-06-22T15:05:23;7.32;;;5.55;;
76978;SDS011;65911;47.502;19.148;2023-06-22T15:08:26;9.83;;;5.70;;
76978;SDS011;65911;47.502;19.148;2023-06-22T15:11:28;8.98;;;4.68;;
76978;SDS011;65911;47.502;19.148;2023-06-22T15:14:30;9.48;;;5.50;;
76978;SDS011;65911;47.502;19.148;2023-06-22T15:17:33;8.13;;;5.38;;
76978;SDS011;65911;47.502;19.148;2023-06-22T15:20:35;10.20;;;5.30;;
76978;SDS011;65911;47.502;19.148;2023-06-22T15:23:37;7.83;;;5.03;;
76978;SDS011;65911;47.502;19.148;2023-06-22T15:26:39;10.63;;;5.78;;
76978;SDS011;65911;47.502;19.148;2023-06-22T15:29:42;7.53;;;5.55;;
76978;SDS011;65911;47.502;19.148;2023-06-22T15:32:44;10.43;;;5.73;;
76978;SDS011;65911;47.502;19.148;2023-06-22T15:35:49;10.23;;;5.75;;
76978;SDS011;65911;47.502;19.148;2023-06-22T15:38:51;8.15;;;5.45;;
76978;SDS011;65911;47.502;19.148;2023-06-22T15:41:53;10.30;;;5.40;;
76978;SDS011;65911;47.502;19.148;2023-06-22T15:44:56;8.40;;;5.87;;
76978;SDS011;65911;47.502;19.148;2023-06-22T15:47:58;9.57;;;5.32;;
76978;SDS011;65911;47.502;19.148;2023-06-22T15:51:05;10.52;;;5.90;;
76978;SDS011;65911;47.502;19.148;2023-06-22T15:54:07;9.68;;;5.82;;
76978;SDS011;65911;47.502;19.148;2023-06-22T15:57:09;8.00;;;5.80;;
76978;SDS011;65911;47.502;19.148;2023-06-22T16:00:15;11.95;;;5.65;;
76978;SDS011;65911;47.502;19.148;2023-06-22T16:03:19;11.10;;;5.80;;
76978;SDS011;65911;47.502;19.148;2023-06-22T16:06:21;11.32;;;5.80;;
76978;SDS011;65911;47.502;19.148;2023-06-22T16:09:23;10.83;;;6.03;;
76978;SDS011;65911;47.502;19.148;2023-06-22T16:12:26;8.20;;;5.63;;
76978;SDS011;65911;47.502;19.148;2023-06-22T16:15:30;8.35;;;6.13;;
76978;SDS011;65911;47.502;19.148;2023-06-22T16:18:33;8.02;;;5.50;;
76978;SDS011;65911;47.502;19.148;2023-06-22T16:21:35;8.03;;;5.07;;
76978;SDS011;65911;47.502;19.148;2023-06-22T16:24:37;7.83;;;5.37;;
76978;SDS011;65911;47.502;19.148;2023-06-22T16:27:39;8.95;;;5.82;;
76978;SDS011;65911;47.502;19.148;2023-06-22T16:30:42;11.00;;;5.80;;
76978;SDS011;65911;47.502;19.148;2023-06-22T16:33:44;9.10;;;5.60;;
76978;SDS011;65911;47.502;19.148;2023-06-22T16:36:49;14.73;;;5.85;;
76978;SDS011;65911;47.502;19.148;2023-06-22T16:39:54;11.23;;;5.70;;
76978;SDS011;65911;47.502;19.148;2023-06-22T16:42:56;13.75;;;5.93;;
76978;SDS011;65911;47.502;19.148;2023-06-22T16:45:59;8.40;;;5.43;;
76978;SDS011;65911;47.502;19.148;2023-06-22T16:49:01;9.32;;;5.60;;
76978;SDS011;65911;47.502;19.148;2023-06-22T16:52:04;11.23;;;5.82;;
76978;SDS011;65911;47.502;19.148;2023-06-22T16:55:06;10.13;;;6.18;;
76978;SDS011;65911;47.502;19.148;2023-06-22T16:58:09;9.52;;;6.10;;
76978;SDS011;65911;47.502;19.148;2023-06-22T17:01:15;8.27;;;5.65;;
76978;SDS011;65911;47.502;19.148;2023-06-22T17:04:20;10.65;;;5.75;;
76978;SDS011;65911;47.502;19.148;2023-06-22T17:07:25;9.23;;;5.60;;
76978;SDS011;65911;47.502;19.148;2023-06-22T17:10:28;8.23;;;5.95;;
76978;SDS011;65911;47.502;19.148;2023-06-22T17:13:32;11.40;;;5.78;;
76978;SDS011;65911;47.502;19.148;2023-06-22T17:16:36;9.07;;;5.47;;
76978;SDS011;65911;47.502;19.148;2023-06-22T17:19:39;9.48;;;5.25;;
76978;SDS011;65911;47.502;19.148;2023-06-22T17:22:43;8.20;;;5.22;;
76978;SDS011;65911;47.502;19.148;2023-06-22T17:25:47;11.77;;;5.32;;
76978;SDS011;65911;47.502;19.148;2023-06-22T17:28:51;6.87;;;5.43;;
76978;SDS011;65911;47.502;19.148;2023-06-22T17:31:54;11.13;;;5.50;;
76978;SDS011;65911;47.502;19.148;2023-06-22T17:34:57;10.93;;;5.57;;
76978;SDS011;65911;47.502;19.148;2023-06-22T17:37:59;8.20;;;5.18;;
76978;SDS011;65911;47.502;19.148;2023-06-22T17:41:02;8.07;;;5.40;;
76978;SDS011;65911;47.502;19.148;2023-06-22T17:44:04;9.32;;;5.55;;
76978;SDS011;65911;47.502;19.148;2023-06-22T17:47:07;8.52;;;5.75;;
76978;SDS011;65911;47.502;19.148;2023-06-22T17:50:09;9.88;;;5.82;;
76978;SDS011;65911;47.502;19.148;2023-06-22T17:53:12;7.33;;;5.63;;
76978;SDS011;65911;47.502;19.148;2023-06-22T17:56:14;8.57;;;5.25;;
76978;SDS011;65911;47.502;19.148;2023-06-22T17:59:18;8.57;;;6.15;;
76978;SDS011;65911;47.502;19.148;2023-06-22T18:02:24;8.70;;;5.50;;
76978;SDS011;65911;47.502;19.148;2023-06-22T18:05:29;8.07;;;5.20;;